Airfield :
LOGIN :

Register | Disclaimer

   EN    FR    IT 

 










Legend :    VFR   Marginal VFR   IFR   Intensive IFR   Very Intensive IFR
Visi :
Ceiling :
>= 8 km
>= 3000ft
5 to 8 km
1000 to 3000 ft
1500m to 5 km
500 to 1000 ft
800 to 1500m
200 to 500 ft
< 800m
< 200 ft
Symbols :   Thunderstorms  Fog  Heavy snow  Heavy precipitations  Wind > 20 kt
SIGMETs :     Misc.  Thunderstorms  Icing  Turbulence  Mountain Waves  Volcanic Ashes






- Airport Elevation : 277 ft
- IATA code : JER


EGJJ - Jersey

CURRENT METAR :
  • 190920Z 24014KT 9999 VCSH FEW014CB SCT017 13/11 Q1002

EXPIRED METARs :
  • 190850Z 24017KT 9999 FEW015CB SCT018 13/11 Q1002
  • 190820Z 24015KT 9999 VCSH FEW015CB FEW017 13/10 Q1002
  • 190750Z 24016KT 9999 VCSH SCT016CB 13/10 Q1002
  • 190720Z 24016KT 9999 VCSH SCT016CB 13/10 Q1002
  • 190650Z 23016KT 9999 SCT016 13/10 Q1002

TAF TAF EGJJ
Valid from the 19 at 09:00 until the 19 at 18:00 UTC


190802Z 1909/1918 25012KT 9999 FEW015CB SCT020
PROB40
TEMPO 1909/1918 7000 SHRA BKN015CB
PROB30
TEMPO 1909/1915 26015G25KT 4000 +TSRAGS BKN012CB
BECMG 1916/1918 31007KT
ATIS : +44 1534 498 073



MET'MAP, your aeronautical weather chart ! - Copyright ORBIFLY December 2007 - Disclaimer

ORBIFLY MET'MAP TEAM :

Programming & Development : Alexandra Zaïnal
Concept & Development : Baudouin d'Aumeries
Co-Development & Prog : Marc-Olivier Méhu
Technical & hardware support : Manuel Goepfert

Contact : metmap@orbifly.com




SOURCES & CREDITS :

   NOAA